createdAt,value
2019-05-25T00:04:51.051Z,6.03
2019-05-25T00:09:55.162Z,5.90
2019-05-25T00:14:59.028Z,5.17
2019-05-25T00:20:02.958Z,4.97
2019-05-25T00:25:07.692Z,3.53
2019-05-25T00:30:11.708Z,4.30
2019-05-25T00:35:15.878Z,3.93
2019-05-25T00:40:20.075Z,2.70
2019-05-25T00:45:25.165Z,2.70
2019-05-25T00:50:29.350Z,2.43
2019-05-25T00:55:33.870Z,4.03
2019-05-25T01:00:38.156Z,2.53
2019-05-25T01:05:42.447Z,2.02
2019-05-25T01:10:46.665Z,2.27
2019-05-25T01:15:50.846Z,2.20
2019-05-25T01:20:55.786Z,2.10
2019-05-25T01:25:59.988Z,2.30
2019-05-25T01:31:03.983Z,3.47
2019-05-25T01:36:07.884Z,2.40
2019-05-25T01:41:12.070Z,3.37
2019-05-25T01:46:15.935Z,2.30
2019-05-25T01:51:19.798Z,2.80
2019-05-25T01:56:23.650Z,2.60
2019-05-25T02:01:27.521Z,3.57
2019-05-25T02:06:32.143Z,2.87
2019-05-25T02:11:36.081Z,2.93
2019-05-25T02:16:40.266Z,3.83
2019-05-25T02:21:44.556Z,3.73
2019-05-25T02:26:49.040Z,3.00
2019-05-25T02:31:53.097Z,3.60
2019-05-25T02:36:56.968Z,3.77
2019-05-25T02:42:02.203Z,3.00
2019-05-25T02:47:06.483Z,3.47
2019-05-25T02:52:10.782Z,3.13
2019-05-25T02:57:15.067Z,3.73
2019-05-25T03:02:19.020Z,4.53
2019-05-25T03:07:23.767Z,4.57
2019-05-25T03:12:29.804Z,3.57
2019-05-25T03:17:34.318Z,5.10
2019-05-25T03:22:38.602Z,4.20
2019-05-25T03:27:42.802Z,3.20
2019-05-25T03:32:47.867Z,4.67
2019-05-25T03:37:52.065Z,4.47
2019-05-25T03:42:56.075Z,3.50
2019-05-25T03:48:00.207Z,4.03
2019-05-25T03:53:04.751Z,4.47
2019-05-25T03:58:09.390Z,4.40
2019-05-25T04:03:13.675Z,4.87
2019-05-25T04:08:18.327Z,4.57
2019-05-25T04:13:22.858Z,4.37
2019-05-25T04:18:27.159Z,4.43
2019-05-25T04:23:31.390Z,5.37
2019-05-25T04:28:35.926Z,4.50
2019-05-25T04:33:39.878Z,5.53
2019-05-25T04:38:44.114Z,4.43
2019-05-25T04:43:48.571Z,5.73
2019-05-25T04:48:52.762Z,6.33
2019-05-25T04:53:57.320Z,5.80
2019-05-25T04:59:01.616Z,5.53
2019-05-25T05:04:05.666Z,5.63
2019-05-25T05:09:09.898Z,5.90
2019-05-25T05:14:14.827Z,8.00
2019-05-25T05:19:18.844Z,6.30
2019-05-25T05:24:22.949Z,7.43
2019-05-25T05:29:27.078Z,7.87
2019-05-25T05:34:31.456Z,9.40
2019-05-25T05:39:36.047Z,6.87
2019-05-25T05:44:41.156Z,9.00
2019-05-25T05:49:46.499Z,9.47
2019-05-25T05:54:52.222Z,8.70
2019-05-25T05:59:58.031Z,11.00
2019-05-25T06:05:02.957Z,8.83
2019-05-25T06:10:08.008Z,8.00
2019-05-25T06:15:12.634Z,8.43
2019-05-25T06:20:16.779Z,10.83
2019-05-25T06:25:21.003Z,9.50
2019-05-25T06:30:25.614Z,9.00
2019-05-25T06:35:29.923Z,8.57
2019-05-25T06:40:33.902Z,10.00
2019-05-25T06:45:38.560Z,9.70
2019-05-25T06:50:42.842Z,9.57
2019-05-25T06:55:46.706Z,12.13
2019-05-25T07:00:50.891Z,12.93
2019-05-25T07:05:54.754Z,10.20
2019-05-25T07:10:58.642Z,9.47
2019-05-25T07:16:02.514Z,10.17
2019-05-25T07:21:08.639Z,9.13
2019-05-25T07:26:12.619Z,9.30
2019-05-25T07:31:16.556Z,12.03
2019-05-25T07:36:20.876Z,9.63
2019-05-25T07:41:24.823Z,10.50
2019-05-25T07:46:29.281Z,7.80
2019-05-25T07:51:33.668Z,11.30
2019-05-25T07:56:37.853Z,8.60
2019-05-25T08:01:42.007Z,10.90
2019-05-25T08:06:45.868Z,9.10
2019-05-25T08:11:50.075Z,7.47
2019-05-25T08:16:54.018Z,7.83
2019-05-25T08:21:58.222Z,7.70
2019-05-25T08:27:02.179Z,9.43
2019-05-25T08:32:06.415Z,10.43
2019-05-25T08:37:10.943Z,10.30
2019-05-25T08:42:15.144Z,7.13
2019-05-25T08:47:19.011Z,9.40
2019-05-25T08:52:23.219Z,9.77
2019-05-25T08:57:27.496Z,9.40
2019-05-25T09:02:31.358Z,9.67
2019-05-25T09:07:35.863Z,13.13
2019-05-25T09:12:39.806Z,11.03
2019-05-25T09:17:44.006Z,10.43
2019-05-25T09:22:47.954Z,10.77
2019-05-25T09:27:51.831Z,11.30
2019-05-25T09:32:56.043Z,11.77
2019-05-25T09:38:00.350Z,13.00
2019-05-25T09:43:04.307Z,12.73
2019-05-25T09:48:08.514Z,11.40
2019-05-25T09:53:13.876Z,12.77
2019-05-25T09:58:18.115Z,13.73
2019-05-25T10:03:24.203Z,16.13
2019-05-25T10:08:28.162Z,15.60
2019-05-25T10:13:32.046Z,14.00
2019-05-25T10:18:36.264Z,14.77
2019-05-25T10:23:40.506Z,14.90
2019-05-25T10:28:44.743Z,16.83
2019-05-25T10:33:48.647Z,12.73
2019-05-25T10:38:52.846Z,12.93
2019-05-25T10:43:56.871Z,12.57
2019-05-25T10:49:01.072Z,11.10
2019-05-25T10:54:04.974Z,11.53
2019-05-25T10:59:09.246Z,10.80
2019-05-25T11:04:13.291Z,10.93
2019-05-25T11:09:18.220Z,11.07
2019-05-25T11:14:22.758Z,9.83
2019-05-25T11:19:26.963Z,10.07
2019-05-25T11:24:30.826Z,9.57
2019-05-25T11:29:35.027Z,10.60
2019-05-25T11:34:39.315Z,9.03
2019-05-25T11:39:43.490Z,9.50
2019-05-25T11:44:47.619Z,9.17
2019-05-25T11:49:51.656Z,9.43
2019-05-25T11:54:55.519Z,10.13
2019-05-25T11:59:59.387Z,10.10
2019-05-25T12:05:07.663Z,9.80
2019-05-25T12:10:12.132Z,12.60
2019-05-25T12:15:16.071Z,13.20
2019-05-25T12:20:21.113Z,15.10
2019-05-25T12:25:26.043Z,14.55
2019-05-25T12:30:40.342Z,14.63
2019-05-25T12:35:36.259Z,14.43
2019-05-25T12:40:52.770Z,16.17
2019-05-25T12:45:45.854Z,16.33
2019-05-25T12:50:49.735Z,16.40
2019-05-25T12:55:53.619Z,16.47
2019-05-25T13:00:57.490Z,14.87
2019-05-25T13:06:02.530Z,14.57
2019-05-25T13:11:09.536Z,17.00
2019-05-25T13:16:12.355Z,14.23
2019-05-25T13:21:16.389Z,15.83
2019-05-25T13:26:20.686Z,12.90
2019-05-25T13:31:24.643Z,13.93
2019-05-25T13:36:28.850Z,12.03
2019-05-25T13:41:32.810Z,12.67
2019-05-25T13:46:36.682Z,12.90
2019-05-25T13:51:40.866Z,12.13
2019-05-25T13:56:45.074Z,11.90
2019-05-25T14:01:49.334Z,10.70
2019-05-25T14:06:53.779Z,9.90
2019-05-25T14:11:58.072Z,9.47
2019-05-25T14:17:02.018Z,9.33
2019-05-25T14:22:05.891Z,8.97
2019-05-25T14:27:09.757Z,8.43
2019-05-25T14:32:13.934Z,8.00
2019-05-25T14:37:17.796Z,8.30
2019-05-25T14:42:22.233Z,6.93
2019-05-25T14:47:26.191Z,7.10
2019-05-25T14:52:30.055Z,6.77
2019-05-25T14:57:33.976Z,6.67
2019-05-25T15:02:37.888Z,6.93
2019-05-25T15:07:42.051Z,5.73
2019-05-25T15:12:46.150Z,5.63
2019-05-25T15:17:50.328Z,7.37
2019-05-25T15:22:54.515Z,4.10
2019-05-25T15:27:58.795Z,4.00
2019-05-25T15:33:03.343Z,5.27
2019-05-25T15:38:07.571Z,3.13
2019-05-25T15:43:11.443Z,4.27
2019-05-25T15:48:16.562Z,3.90
2019-05-25T15:53:20.423Z,4.87
2019-05-25T15:58:24.294Z,3.20
2019-05-25T16:03:28.495Z,3.63
2019-05-25T16:08:32.842Z,4.10
2019-05-25T16:13:36.814Z,4.87
2019-05-25T16:18:40.674Z,4.30
2019-05-25T16:23:44.556Z,3.47
2019-05-25T16:28:48.443Z,3.20
2019-05-25T16:33:52.556Z,3.67
2019-05-25T16:38:56.419Z,5.70
2019-05-25T16:44:00.630Z,3.50
2019-05-25T16:49:04.491Z,5.33
2019-05-25T16:54:08.402Z,3.57
2019-05-25T16:59:12.907Z,3.93
2019-05-25T17:04:17.966Z,3.47
2019-05-25T17:09:21.830Z,4.77
2019-05-25T17:14:25.703Z,4.73
2019-05-25T17:19:29.984Z,4.57
2019-05-25T17:24:34.279Z,6.00
2019-05-25T17:29:38.258Z,3.67
2019-05-25T17:34:42.117Z,3.30
2019-05-25T17:39:46.315Z,5.53
2019-05-25T17:44:50.359Z,5.63
2019-05-25T17:49:54.647Z,5.60
2019-05-25T17:54:59.197Z,5.03
2019-05-25T18:00:04.632Z,6.03
2019-05-25T18:05:10.547Z,5.87
2019-05-25T18:10:15.296Z,5.87
2019-05-25T18:15:19.642Z,5.50
2019-05-25T18:20:23.973Z,7.90
2019-05-25T18:25:28.096Z,4.50
2019-05-25T18:30:33.833Z,5.10
2019-05-25T18:35:38.702Z,3.87
2019-05-25T18:40:43.155Z,5.70
2019-05-25T18:45:47.344Z,8.00
2019-05-25T18:50:52.550Z,6.53
2019-05-25T18:55:56.428Z,4.83
2019-05-25T19:01:00.621Z,5.13
2019-05-25T19:06:04.632Z,5.93
2019-05-25T19:11:09.159Z,8.87
2019-05-25T19:16:13.128Z,7.27
2019-05-25T19:21:17.008Z,5.87
2019-05-25T19:26:20.967Z,4.53
2019-05-25T19:31:25.093Z,3.40
2019-05-25T19:36:29.302Z,5.90
2019-05-25T19:41:33.272Z,4.77
2019-05-25T19:46:37.399Z,3.87
2019-05-25T19:51:41.282Z,5.17
2019-05-25T19:56:45.490Z,5.20
2019-05-25T20:01:49.690Z,6.63
2019-05-25T20:06:53.978Z,5.93
2019-05-25T20:11:58.262Z,7.47
2019-05-25T20:17:02.499Z,6.10
2019-05-25T20:22:09.146Z,7.43
2019-05-25T20:27:12.687Z,5.55
2019-05-25T20:32:16.957Z,6.40
2019-05-25T20:37:21.479Z,7.13
2019-05-25T20:42:25.429Z,6.90
2019-05-25T20:47:29.303Z,6.87
2019-05-25T20:52:33.182Z,7.00
2019-05-25T20:57:37.419Z,7.97
2019-05-25T21:02:41.612Z,7.97
2019-05-25T21:07:45.575Z,8.83
2019-05-25T21:12:49.886Z,6.70
2019-05-25T21:17:54.177Z,7.43
2019-05-25T21:22:58.157Z,11.40
2019-05-25T21:28:02.323Z,7.00
2019-05-25T21:33:06.947Z,8.10
2019-05-25T21:38:11.150Z,9.77
2019-05-25T21:43:15.069Z,8.03
2019-05-25T21:48:20.135Z,9.87
2019-05-25T21:53:25.213Z,8.37
2019-05-25T21:58:29.365Z,7.70
2019-05-25T22:03:33.597Z,9.27
2019-05-25T22:08:38.950Z,10.43
2019-05-25T22:13:42.910Z,9.23
2019-05-25T22:18:47.114Z,8.63
2019-05-25T22:23:51.300Z,9.30
2019-05-25T22:28:55.167Z,6.53
2019-05-25T22:33:59.560Z,6.67
2019-05-25T22:39:05.207Z,7.50
2019-05-25T22:44:09.051Z,7.50
2019-05-25T22:49:13.269Z,8.97
2019-05-25T22:54:18.502Z,8.97
2019-05-25T22:59:23.056Z,7.53
2019-05-25T23:04:26.999Z,7.47
2019-05-25T23:09:30.864Z,8.30
2019-05-25T23:14:34.714Z,8.10
2019-05-25T23:19:38.837Z,8.13
2019-05-25T23:24:43.015Z,8.07
2019-05-25T23:29:47.211Z,8.80
2019-05-25T23:34:51.516Z,6.70
2019-05-25T23:39:55.460Z,8.40
2019-05-25T23:44:59.319Z,8.60
2019-05-25T23:50:04.246Z,9.10
2019-05-25T23:55:08.303Z,10.23
